sensor_id;sensor_type;location;lat;lon;timestamp;P1;durP1;ratioP1;P2;durP2;ratioP2
44098;SDS011;29762;50.086;14.364;2022-11-20T00:01:12;3.95;;;3.58;;
44098;SDS011;29762;50.086;14.364;2022-11-20T00:06:32;3.70;;;3.40;;
44098;SDS011;29762;50.086;14.364;2022-11-20T00:11:51;3.60;;;3.30;;
44098;SDS011;29762;50.086;14.364;2022-11-20T00:17:11;4.03;;;3.58;;
44098;SDS011;29762;50.086;14.364;2022-11-20T00:22:31;3.50;;;3.20;;
44098;SDS011;29762;50.086;14.364;2022-11-20T00:27:50;3.72;;;3.38;;
44098;SDS011;29762;50.086;14.364;2022-11-20T00:33:09;4.05;;;3.65;;
44098;SDS011;29762;50.086;14.364;2022-11-20T00:38:29;3.60;;;3.30;;
44098;SDS011;29762;50.086;14.364;2022-11-20T00:43:51;3.72;;;3.42;;
44098;SDS011;29762;50.086;14.364;2022-11-20T00:49:11;3.80;;;3.50;;
44098;SDS011;29762;50.086;14.364;2022-11-20T00:54:31;3.25;;;2.95;;
44098;SDS011;29762;50.086;14.364;2022-11-20T00:59:50;3.83;;;3.53;;
44098;SDS011;29762;50.086;14.364;2022-11-20T01:05:09;3.30;;;2.95;;
44098;SDS011;29762;50.086;14.364;2022-11-20T01:10:29;3.50;;;3.20;;
44098;SDS011;29762;50.086;14.364;2022-11-20T01:15:48;3.13;;;2.92;;
44098;SDS011;29762;50.086;14.364;2022-11-20T01:21:09;3.38;;;3.08;;
44098;SDS011;29762;50.086;14.364;2022-11-20T01:26:34;3.90;;;3.30;;
44098;SDS011;29762;50.086;14.364;2022-11-20T01:31:54;3.40;;;3.10;;
44098;SDS011;29762;50.086;14.364;2022-11-20T01:37:14;4.43;;;2.90;;
44098;SDS011;29762;50.086;14.364;2022-11-20T01:42:33;3.30;;;3.00;;
44098;SDS011;29762;50.086;14.364;2022-11-20T01:48:11;3.30;;;3.00;;
44098;SDS011;29762;50.086;14.364;2022-11-20T01:53:32;3.30;;;3.00;;
44098;SDS011;29762;50.086;14.364;2022-11-20T01:58:54;2.85;;;2.60;;
44098;SDS011;29762;50.086;14.364;2022-11-20T02:04:15;3.17;;;2.88;;
44098;SDS011;29762;50.086;14.364;2022-11-20T02:09:35;2.92;;;2.55;;
44098;SDS011;29762;50.086;14.364;2022-11-20T02:14:55;3.08;;;2.88;;
44098;SDS011;29762;50.086;14.364;2022-11-20T02:20:14;2.88;;;2.67;;
44098;SDS011;29762;50.086;14.364;2022-11-20T02:25:33;3.20;;;2.90;;
44098;SDS011;29762;50.086;14.364;2022-11-20T02:30:54;2.92;;;2.72;;
44098;SDS011;29762;50.086;14.364;2022-11-20T02:36:14;2.80;;;2.60;;
44098;SDS011;29762;50.086;14.364;2022-11-20T02:41:35;3.08;;;2.88;;
44098;SDS011;29762;50.086;14.364;2022-11-20T02:46:59;3.00;;;2.80;;
44098;SDS011;29762;50.086;14.364;2022-11-20T02:52:18;2.85;;;2.55;;
44098;SDS011;29762;50.086;14.364;2022-11-20T02:57:38;3.13;;;2.83;;
44098;SDS011;29762;50.086;14.364;2022-11-20T03:02:57;2.70;;;2.50;;
44098;SDS011;29762;50.086;14.364;2022-11-20T03:08:16;2.70;;;2.50;;
44098;SDS011;29762;50.086;14.364;2022-11-20T03:13:36;2.70;;;2.50;;
44098;SDS011;29762;50.086;14.364;2022-11-20T03:18:56;2.72;;;2.53;;
44098;SDS011;29762;50.086;14.364;2022-11-20T03:24:16;2.85;;;2.60;;
44098;SDS011;29762;50.086;14.364;2022-11-20T03:29:35;2.47;;;2.28;;
44098;SDS011;29762;50.086;14.364;2022-11-20T03:34:54;2.92;;;2.67;;
44098;SDS011;29762;50.086;14.364;2022-11-20T03:40:14;2.88;;;2.45;;
44098;SDS011;29762;50.086;14.364;2022-11-20T03:45:34;2.58;;;2.38;;
44098;SDS011;29762;50.086;14.364;2022-11-20T03:50:54;2.95;;;2.65;;
44098;SDS011;29762;50.086;14.364;2022-11-20T03:56:27;3.17;;;2.88;;
44098;SDS011;29762;50.086;14.364;2022-11-20T04:01:48;3.95;;;2.72;;
44098;SDS011;29762;50.086;14.364;2022-11-20T04:07:07;3.00;;;2.58;;
44098;SDS011;29762;50.086;14.364;2022-11-20T04:12:27;3.00;;;2.80;;
44098;SDS011;29762;50.086;14.364;2022-11-20T04:17:46;3.20;;;2.90;;
44098;SDS011;29762;50.086;14.364;2022-11-20T04:23:05;2.88;;;2.67;;
44098;SDS011;29762;50.086;14.364;2022-11-20T04:28:25;2.60;;;2.40;;
44098;SDS011;29762;50.086;14.364;2022-11-20T04:33:45;2.80;;;2.60;;
44098;SDS011;29762;50.086;14.364;2022-11-20T04:39:05;2.88;;;2.60;;
44098;SDS011;29762;50.086;14.364;2022-11-20T04:44:25;2.90;;;2.70;;
44098;SDS011;29762;50.086;14.364;2022-11-20T04:49:45;2.90;;;2.70;;
44098;SDS011;29762;50.086;14.364;2022-11-20T04:55:05;3.25;;;2.85;;
44098;SDS011;29762;50.086;14.364;2022-11-20T05:00:25;2.70;;;2.50;;
44098;SDS011;29762;50.086;14.364;2022-11-20T05:05:44;2.97;;;2.78;;
44098;SDS011;29762;50.086;14.364;2022-11-20T05:11:15;3.30;;;3.00;;
44098;SDS011;29762;50.086;14.364;2022-11-20T05:16:35;2.78;;;2.58;;
44098;SDS011;29762;50.086;14.364;2022-11-20T05:21:55;3.00;;;2.70;;
44098;SDS011;29762;50.086;14.364;2022-11-20T05:27:15;3.00;;;2.70;;
44098;SDS011;29762;50.086;14.364;2022-11-20T05:32:35;3.05;;;2.75;;
44098;SDS011;29762;50.086;14.364;2022-11-20T05:37:54;3.38;;;2.60;;
44098;SDS011;29762;50.086;14.364;2022-11-20T05:43:13;3.45;;;3.15;;
44098;SDS011;29762;50.086;14.364;2022-11-20T05:48:33;3.08;;;2.78;;
44098;SDS011;29762;50.086;14.364;2022-11-20T05:53:54;2.90;;;2.70;;
44098;SDS011;29762;50.086;14.364;2022-11-20T05:59:15;2.97;;;2.70;;
44098;SDS011;29762;50.086;14.364;2022-11-20T06:04:34;3.35;;;3.05;;
44098;SDS011;29762;50.086;14.364;2022-11-20T06:09:54;3.10;;;2.83;;
44098;SDS011;29762;50.086;14.364;2022-11-20T06:15:13;3.50;;;3.20;;
44098;SDS011;29762;50.086;14.364;2022-11-20T06:20:33;3.10;;;2.80;;
44098;SDS011;29762;50.086;14.364;2022-11-20T06:25:52;3.30;;;3.00;;
44098;SDS011;29762;50.086;14.364;2022-11-20T06:31:12;3.05;;;2.78;;
44098;SDS011;29762;50.086;14.364;2022-11-20T06:36:32;2.92;;;2.72;;
44098;SDS011;29762;50.086;14.364;2022-11-20T06:41:52;3.22;;;2.92;;
44098;SDS011;29762;50.086;14.364;2022-11-20T06:47:11;2.97;;;2.75;;
44098;SDS011;29762;50.086;14.364;2022-11-20T06:52:31;3.47;;;2.83;;
44098;SDS011;29762;50.086;14.364;2022-11-20T06:57:52;3.97;;;3.45;;
44098;SDS011;29762;50.086;14.364;2022-11-20T07:03:11;3.30;;;3.00;;
44098;SDS011;29762;50.086;14.364;2022-11-20T07:08:32;3.22;;;2.97;;
44098;SDS011;29762;50.086;14.364;2022-11-20T07:13:52;4.22;;;3.25;;
44098;SDS011;29762;50.086;14.364;2022-11-20T07:19:11;3.50;;;3.20;;
44098;SDS011;29762;50.086;14.364;2022-11-20T07:24:30;4.35;;;3.05;;
44098;SDS011;29762;50.086;14.364;2022-11-20T07:29:50;3.65;;;3.22;;
44098;SDS011;29762;50.086;14.364;2022-11-20T07:35:10;3.28;;;2.97;;
44098;SDS011;29762;50.086;14.364;2022-11-20T07:40:29;3.35;;;3.05;;
44098;SDS011;29762;50.086;14.364;2022-11-20T07:45:49;3.20;;;2.90;;
44098;SDS011;29762;50.086;14.364;2022-11-20T07:51:09;3.33;;;3.03;;
44098;SDS011;29762;50.086;14.364;2022-11-20T07:56:28;3.35;;;3.05;;
44098;SDS011;29762;50.086;14.364;2022-11-20T08:01:48;3.38;;;3.08;;
44098;SDS011;29762;50.086;14.364;2022-11-20T08:07:08;3.72;;;3.38;;
44098;SDS011;29762;50.086;14.364;2022-11-20T08:12:27;3.30;;;3.00;;
44098;SDS011;29762;50.086;14.364;2022-11-20T08:18:06;3.95;;;3.35;;
44098;SDS011;29762;50.086;14.364;2022-11-20T08:23:27;3.97;;;3.15;;
44098;SDS011;29762;50.086;14.364;2022-11-20T08:28:47;3.55;;;3.25;;
44098;SDS011;29762;50.086;14.364;2022-11-20T08:34:06;3.97;;;3.58;;
44098;SDS011;29762;50.086;14.364;2022-11-20T08:39:25;11.55;;;10.43;;
44098;SDS011;29762;50.086;14.364;2022-11-20T08:44:45;4.30;;;3.92;;
44098;SDS011;29762;50.086;14.364;2022-11-20T08:50:08;5.25;;;4.75;;
44098;SDS011;29762;50.086;14.364;2022-11-20T08:55:30;5.05;;;4.65;;
44098;SDS011;29762;50.086;14.364;2022-11-20T09:00:50;4.90;;;4.40;;
44098;SDS011;29762;50.086;14.364;2022-11-20T09:06:10;4.60;;;4.15;;
44098;SDS011;29762;50.086;14.364;2022-11-20T09:11:30;4.80;;;4.40;;
44098;SDS011;29762;50.086;14.364;2022-11-20T09:16:50;4.53;;;4.13;;
44098;SDS011;29762;50.086;14.364;2022-11-20T09:22:10;4.50;;;4.10;;
44098;SDS011;29762;50.086;14.364;2022-11-20T09:27:29;6.10;;;4.00;;
44098;SDS011;29762;50.086;14.364;2022-11-20T09:32:49;4.20;;;3.80;;
44098;SDS011;29762;50.086;14.364;2022-11-20T09:38:09;4.13;;;3.72;;
44098;SDS011;29762;50.086;14.364;2022-11-20T09:49:26;4.88;;;4.28;;
44098;SDS011;29762;50.086;14.364;2022-11-20T09:54:52;7.72;;;4.57;;
44098;SDS011;29762;50.086;14.364;2022-11-20T10:00:13;9.68;;;4.57;;
44098;SDS011;29762;50.086;14.364;2022-11-20T10:11:01;7.25;;;4.15;;
44098;SDS011;29762;50.086;14.364;2022-11-20T10:33:29;7.75;;;5.40;;
44098;SDS011;29762;50.086;14.364;2022-11-20T10:38:54;5.80;;;4.90;;
44098;SDS011;29762;50.086;14.364;2022-11-20T10:44:21;5.97;;;5.25;;
44098;SDS011;29762;50.086;14.364;2022-11-20T10:50:04;7.07;;;5.30;;
44098;SDS011;29762;50.086;14.364;2022-11-20T10:56:02;5.88;;;4.90;;
44098;SDS011;29762;50.086;14.364;2022-11-20T11:01:21;6.38;;;5.47;;
44098;SDS011;29762;50.086;14.364;2022-11-20T11:06:46;5.80;;;5.00;;
44098;SDS011;29762;50.086;14.364;2022-11-20T11:12:08;5.63;;;4.93;;
44098;SDS011;29762;50.086;14.364;2022-11-20T11:17:32;8.70;;;5.30;;
44098;SDS011;29762;50.086;14.364;2022-11-20T11:22:53;5.80;;;5.20;;
44098;SDS011;29762;50.086;14.364;2022-11-20T11:28:19;6.22;;;4.93;;
44098;SDS011;29762;50.086;14.364;2022-11-20T11:33:41;4.97;;;4.47;;
44098;SDS011;29762;50.086;14.364;2022-11-20T11:39:00;5.93;;;5.18;;
44098;SDS011;29762;50.086;14.364;2022-11-20T11:44:22;5.25;;;4.75;;
44098;SDS011;29762;50.086;14.364;2022-11-20T11:55:40;5.95;;;5.03;;
44098;SDS011;29762;50.086;14.364;2022-11-20T12:06:44;6.32;;;4.97;;
44098;SDS011;29762;50.086;14.364;2022-11-20T12:12:15;6.10;;;4.97;;
44098;SDS011;29762;50.086;14.364;2022-11-20T12:17:39;5.60;;;4.93;;
44098;SDS011;29762;50.086;14.364;2022-11-20T12:23:06;6.28;;;4.97;;
44098;SDS011;29762;50.086;14.364;2022-11-20T12:28:34;6.22;;;5.10;;
44098;SDS011;29762;50.086;14.364;2022-11-20T12:34:04;5.25;;;4.75;;
44098;SDS011;29762;50.086;14.364;2022-11-20T12:45:07;5.82;;;4.90;;
44098;SDS011;29762;50.086;14.364;2022-11-20T13:02:11;5.85;;;4.93;;
44098;SDS011;29762;50.086;14.364;2022-11-20T13:07:49;5.47;;;4.55;;
44098;SDS011;29762;50.086;14.364;2022-11-20T13:13:30;5.18;;;4.45;;
44098;SDS011;29762;50.086;14.364;2022-11-20T13:18:54;5.35;;;4.75;;
44098;SDS011;29762;50.086;14.364;2022-11-20T13:29:45;5.50;;;4.47;;
44098;SDS011;29762;50.086;14.364;2022-11-20T13:35:08;4.72;;;4.28;;
44098;SDS011;29762;50.086;14.364;2022-11-20T13:40:27;4.47;;;4.07;;
44098;SDS011;29762;50.086;14.364;2022-11-20T13:46:00;6.03;;;4.20;;
44098;SDS011;29762;50.086;14.364;2022-11-20T13:51:28;4.60;;;4.20;;
44098;SDS011;29762;50.086;14.364;2022-11-20T14:02:38;4.90;;;4.40;;
44098;SDS011;29762;50.086;14.364;2022-11-20T14:07:58;4.82;;;4.28;;
44098;SDS011;29762;50.086;14.364;2022-11-20T14:13:18;4.18;;;3.78;;
44098;SDS011;29762;50.086;14.364;2022-11-20T14:18:39;4.72;;;4.22;;
44098;SDS011;29762;50.086;14.364;2022-11-20T14:24:05;4.03;;;3.58;;
44098;SDS011;29762;50.086;14.364;2022-11-20T14:29:44;4.63;;;4.10;;
44098;SDS011;29762;50.086;14.364;2022-11-20T14:35:09;4.40;;;4.00;;
44098;SDS011;29762;50.086;14.364;2022-11-20T14:40:33;4.35;;;3.95;;
44098;SDS011;29762;50.086;14.364;2022-11-20T14:46:04;4.18;;;3.78;;
44098;SDS011;29762;50.086;14.364;2022-11-20T14:51:32;4.20;;;3.80;;
44098;SDS011;29762;50.086;14.364;2022-11-20T14:56:54;4.30;;;3.90;;
44098;SDS011;29762;50.086;14.364;2022-11-20T15:02:21;4.05;;;3.72;;
44098;SDS011;29762;50.086;14.364;2022-11-20T15:07:42;3.88;;;3.47;;
44098;SDS011;29762;50.086;14.364;2022-11-20T15:13:13;4.38;;;3.97;;
44098;SDS011;29762;50.086;14.364;2022-11-20T15:18:39;3.90;;;3.60;;
44098;SDS011;29762;50.086;14.364;2022-11-20T15:24:02;4.40;;;4.00;;
44098;SDS011;29762;50.086;14.364;2022-11-20T15:29:22;3.90;;;3.60;;
44098;SDS011;29762;50.086;14.364;2022-11-20T15:34:42;3.88;;;3.58;;
44098;SDS011;29762;50.086;14.364;2022-11-20T15:40:02;4.10;;;3.63;;
44098;SDS011;29762;50.086;14.364;2022-11-20T15:45:22;5.63;;;3.75;;
44098;SDS011;29762;50.086;14.364;2022-11-20T15:50:50;13.55;;;12.13;;
44098;SDS011;29762;50.086;14.364;2022-11-20T15:56:12;5.00;;;4.60;;
44098;SDS011;29762;50.086;14.364;2022-11-20T16:01:33;6.53;;;5.80;;
44098;SDS011;29762;50.086;14.364;2022-11-20T16:06:53;6.30;;;5.70;;
44098;SDS011;29762;50.086;14.364;2022-11-20T16:12:12;5.82;;;5.22;;
44098;SDS011;29762;50.086;14.364;2022-11-20T16:17:52;5.70;;;5.10;;
44098;SDS011;29762;50.086;14.364;2022-11-20T16:23:11;6.25;;;5.28;;
44098;SDS011;29762;50.086;14.364;2022-11-20T16:28:31;5.40;;;4.90;;
44098;SDS011;29762;50.086;14.364;2022-11-20T16:33:52;5.57;;;4.95;;
44098;SDS011;29762;50.086;14.364;2022-11-20T16:39:13;5.57;;;5.07;;
44098;SDS011;29762;50.086;14.364;2022-11-20T16:44:33;5.32;;;4.82;;
44098;SDS011;29762;50.086;14.364;2022-11-20T16:49:53;5.28;;;4.78;;
44098;SDS011;29762;50.086;14.364;2022-11-20T16:55:13;5.55;;;4.97;;
44098;SDS011;29762;50.086;14.364;2022-11-20T17:00:34;5.07;;;4.57;;
44098;SDS011;29762;50.086;14.364;2022-11-20T17:05:58;5.28;;;4.43;;
44098;SDS011;29762;50.086;14.364;2022-11-20T17:11:17;4.78;;;4.30;;
44098;SDS011;29762;50.086;14.364;2022-11-20T17:16:38;5.35;;;4.45;;
44098;SDS011;29762;50.086;14.364;2022-11-20T17:21:57;4.53;;;4.13;;
44098;SDS011;29762;50.086;14.364;2022-11-20T17:27:17;4.40;;;4.00;;
44098;SDS011;29762;50.086;14.364;2022-11-20T17:32:36;5.07;;;4.57;;
44098;SDS011;29762;50.086;14.364;2022-11-20T17:37:56;5.07;;;4.57;;
44098;SDS011;29762;50.086;14.364;2022-11-20T17:43:15;6.57;;;4.95;;
44098;SDS011;29762;50.086;14.364;2022-11-20T17:48:36;5.10;;;4.60;;
44098;SDS011;29762;50.086;14.364;2022-11-20T17:53:57;6.13;;;4.65;;
44098;SDS011;29762;50.086;14.364;2022-11-20T17:59:19;7.55;;;4.95;;
44098;SDS011;29762;50.086;14.364;2022-11-20T18:04:39;7.50;;;5.07;;
44098;SDS011;29762;50.086;14.364;2022-11-20T18:09:59;5.65;;;4.70;;
44098;SDS011;29762;50.086;14.364;2022-11-20T18:15:18;7.18;;;4.75;;
44098;SDS011;29762;50.086;14.364;2022-11-20T18:20:37;5.65;;;4.85;;
44098;SDS011;29762;50.086;14.364;2022-11-20T18:26:00;5.95;;;4.68;;
44098;SDS011;29762;50.086;14.364;2022-11-20T18:31:19;4.65;;;4.22;;
44098;SDS011;29762;50.086;14.364;2022-11-20T18:36:39;4.78;;;4.35;;
44098;SDS011;29762;50.086;14.364;2022-11-20T18:42:00;4.72;;;4.10;;
44098;SDS011;29762;50.086;14.364;2022-11-20T18:47:38;5.05;;;3.85;;
44098;SDS011;29762;50.086;14.364;2022-11-20T18:52:58;5.63;;;3.90;;
44098;SDS011;29762;50.086;14.364;2022-11-20T18:58:17;6.70;;;4.22;;
44098;SDS011;29762;50.086;14.364;2022-11-20T19:03:36;6.45;;;3.80;;
44098;SDS011;29762;50.086;14.364;2022-11-20T19:08:56;4.32;;;3.60;;
44098;SDS011;29762;50.086;14.364;2022-11-20T19:14:15;4.40;;;4.00;;
44098;SDS011;29762;50.086;14.364;2022-11-20T19:19:35;4.90;;;3.33;;
44098;SDS011;29762;50.086;14.364;2022-11-20T19:24:56;5.20;;;3.88;;
44098;SDS011;29762;50.086;14.364;2022-11-20T19:30:15;4.13;;;3.80;;
44098;SDS011;29762;50.086;14.364;2022-11-20T19:35:35;3.95;;;3.35;;
44098;SDS011;29762;50.086;14.364;2022-11-20T19:40:55;4.15;;;3.75;;
44098;SDS011;29762;50.086;14.364;2022-11-20T19:46:17;4.07;;;3.35;;
44098;SDS011;29762;50.086;14.364;2022-11-20T19:51:42;4.88;;;3.58;;
44098;SDS011;29762;50.086;14.364;2022-11-20T19:57:03;4.20;;;3.70;;
44098;SDS011;29762;50.086;14.364;2022-11-20T20:02:23;6.28;;;3.67;;
44098;SDS011;29762;50.086;14.364;2022-11-20T20:07:42;4.55;;;3.80;;
44098;SDS011;29762;50.086;14.364;2022-11-20T20:13:01;6.10;;;3.67;;
44098;SDS011;29762;50.086;14.364;2022-11-20T20:18:22;4.25;;;3.45;;
44098;SDS011;29762;50.086;14.364;2022-11-20T20:23:41;4.75;;;3.60;;
44098;SDS011;29762;50.086;14.364;2022-11-20T20:29:02;4.18;;;3.40;;
44098;SDS011;29762;50.086;14.364;2022-11-20T20:34:22;5.88;;;3.22;;
44098;SDS011;29762;50.086;14.364;2022-11-20T20:39:42;4.15;;;3.65;;
44098;SDS011;29762;50.086;14.364;2022-11-20T20:45:01;4.57;;;3.22;;
44098;SDS011;29762;50.086;14.364;2022-11-20T20:50:29;3.60;;;3.30;;
44098;SDS011;29762;50.086;14.364;2022-11-20T20:55:55;4.80;;;3.40;;
44098;SDS011;29762;50.086;14.364;2022-11-20T21:01:18;4.85;;;3.47;;
44098;SDS011;29762;50.086;14.364;2022-11-20T21:06:38;4.25;;;3.17;;
44098;SDS011;29762;50.086;14.364;2022-11-20T21:11:57;6.25;;;3.50;;
44098;SDS011;29762;50.086;14.364;2022-11-20T21:17:17;5.72;;;3.58;;
44098;SDS011;29762;50.086;14.364;2022-11-20T21:22:36;5.25;;;3.70;;
44098;SDS011;29762;50.086;14.364;2022-11-20T21:27:55;4.53;;;3.83;;
44098;SDS011;29762;50.086;14.364;2022-11-20T21:33:16;7.78;;;4.45;;
44098;SDS011;29762;50.086;14.364;2022-11-20T21:38:35;4.55;;;3.83;;
44098;SDS011;29762;50.086;14.364;2022-11-20T21:43:55;4.30;;;3.50;;
44098;SDS011;29762;50.086;14.364;2022-11-20T21:49:16;5.07;;;4.03;;
44098;SDS011;29762;50.086;14.364;2022-11-20T21:54:36;6.03;;;4.53;;
44098;SDS011;29762;50.086;14.364;2022-11-20T21:59:55;5.15;;;4.00;;
44098;SDS011;29762;50.086;14.364;2022-11-20T22:05:16;4.20;;;3.80;;
44098;SDS011;29762;50.086;14.364;2022-11-20T22:10:36;6.68;;;3.80;;
44098;SDS011;29762;50.086;14.364;2022-11-20T22:15:59;5.30;;;3.75;;
44098;SDS011;29762;50.086;14.364;2022-11-20T22:21:20;4.53;;;4.00;;
44098;SDS011;29762;50.086;14.364;2022-11-20T22:26:41;3.78;;;3.42;;
44098;SDS011;29762;50.086;14.364;2022-11-20T22:32:01;4.38;;;3.80;;
44098;SDS011;29762;50.086;14.364;2022-11-20T22:37:21;5.43;;;3.60;;
44098;SDS011;29762;50.086;14.364;2022-11-20T22:42:43;3.70;;;3.35;;
44098;SDS011;29762;50.086;14.364;2022-11-20T22:48:03;3.75;;;3.45;;
44098;SDS011;29762;50.086;14.364;2022-11-20T22:53:23;4.10;;;3.53;;
44098;SDS011;29762;50.086;14.364;2022-11-20T22:58:46;4.30;;;3.50;;
44098;SDS011;29762;50.086;14.364;2022-11-20T23:04:08;4.32;;;3.53;;
44098;SDS011;29762;50.086;14.364;2022-11-20T23:09:29;4.25;;;3.20;;
44098;SDS011;29762;50.086;14.364;2022-11-20T23:14:48;4.13;;;3.50;;
44098;SDS011;29762;50.086;14.364;2022-11-20T23:20:08;4.78;;;3.50;;
44098;SDS011;29762;50.086;14.364;2022-11-20T23:25:28;3.90;;;3.50;;
44098;SDS011;29762;50.086;14.364;2022-11-20T23:30:47;4.85;;;3.10;;
44098;SDS011;29762;50.086;14.364;2022-11-20T23:36:07;3.75;;;3.22;;
44098;SDS011;29762;50.086;14.364;2022-11-20T23:41:27;3.50;;;3.20;;
44098;SDS011;29762;50.086;14.364;2022-11-20T23:46:46;4.57;;;3.33;;
44098;SDS011;29762;50.086;14.364;2022-11-20T23:52:06;3.30;;;3.00;;
44098;SDS011;29762;50.086;14.364;2022-11-20T23:57:25;3.42;;;3.13;;
